Time;durP1;ratioP1;P1;durP2;ratioP2;P2;SDS_P1;SDS_P2;PMS_P1;PMS_P2;Temp;Humidity;BMP_temperature;BMP_pressure;BME280_temperature;BME280_humidity;BME280_pressure;Samples;Min_cycle;Max_cycle;Signal;HPM_P1;HPM_P2
2021/08/01 04:52:36;;;;;;;20.50;5.88;;;;;;;;;;5022222;22;20627;-71
2021/08/01 04:55:02;;;;;;;23.73;6.97;;;;;;;;;;5015952;28;20031;-72
2021/08/01 04:57:28;;;;;;;24.75;7.03;;;;;;;;;;5019976;28;20040;-72
2021/08/01 04:59:55;;;;;;;17.70;7.20;;;;;;;;;;5038068;28;20025;-72
2021/08/01 05:02:24;;;;;;;17.73;6.72;;;;;;;;;;5032804;28;20036;-72
2021/08/01 05:04:50;;;;;;;17.02;6.60;;;;;;;;;;5032833;28;20021;-72
2021/08/01 05:07:16;;;;;;;19.70;7.07;;;;;;;;;;5028699;28;20032;-71
2021/08/01 05:09:42;;;;;;;19.35;5.47;;;;;;;;;;5040812;28;20033;-71
2021/08/01 05:12:08;;;;;;;16.98;5.10;;;;;;;;;;5039995;28;20368;-71
2021/08/01 05:14:34;;;;;;;14.50;5.20;;;;;;;;;;5040492;28;20028;-72
2021/08/01 05:17:01;;;;;;;19.98;4.82;;;;;;;;;;5034613;28;20092;-71
2021/08/01 05:19:27;;;;;;;16.63;5.45;;;;;;;;;;5033244;28;20033;-71
2021/08/01 05:21:53;;;;;;;16.30;4.63;;;;;;;;;;5040451;28;20111;-72
2021/08/01 05:24:19;;;;;;;16.00;5.53;;;;;;;;;;5040494;28;20622;-73
2021/08/01 05:26:45;;;;;;;19.60;5.28;;;;;;;;;;5030536;28;20045;-71
2021/08/01 05:29:12;;;;;;;18.02;5.13;;;;;;;;;;5040822;28;20574;-73
2021/08/01 05:31:38;;;;;;;17.98;5.07;;;;;;;;;;5040587;28;20100;-71
2021/08/01 05:34:04;;;;;;;16.70;4.93;;;;;;;;;;5032037;28;20025;-71
2021/08/01 05:36:30;;;;;;;22.60;4.93;;;;;;;;;;5038657;28;20029;-71
2021/08/01 05:38:56;;;;;;;19.67;5.15;;;;;;;;;;5029716;28;20058;-71
2021/08/01 05:41:24;;;;;;;18.55;5.00;;;;;;;;;;5034312;28;20580;-71
2021/08/01 05:43:51;;;;;;;12.45;4.15;;;;;;;;;;5040758;28;20447;-71
2021/08/01 05:46:17;;;;;;;15.07;5.22;;;;;;;;;;5040313;28;20942;-71
2021/08/01 05:48:43;;;;;;;22.33;6.10;;;;;;;;;;5031459;28;20033;-71
2021/08/01 05:51:10;;;;;;;18.90;6.35;;;;;;;;;;5006155;28;20108;-71
2021/08/01 05:53:36;;;;;;;14.25;6.07;;;;;;;;;;4981532;28;20108;-71
2021/08/01 05:56:12;;;;;;;16.85;6.00;;;;;;;;;;4979733;28;20039;-70
2021/08/01 05:58:39;;;;;;;13.30;5.82;;;;;;;;;;4981969;28;20039;-70
2021/08/01 06:01:09;;;;;;;28.55;6.65;;;;;;;;;;4984679;28;20022;-71
2021/08/01 06:03:35;;;;;;;15.38;5.63;;;;;;;;;;4985962;28;20019;-72
2021/08/01 06:06:11;;;;;;;24.02;7.47;;;;;;;;;;4985683;28;20034;-71
2021/08/01 06:08:38;;;;;;;21.75;7.05;;;;;;;;;;4983934;28;20035;-71
2021/08/01 06:11:05;;;;;;;16.38;6.35;;;;;;;;;;4984796;28;20041;-72
2021/08/01 06:13:31;;;;;;;25.23;7.25;;;;;;;;;;4981844;28;20038;-74
2021/08/01 06:15:58;;;;;;;18.48;6.90;;;;;;;;;;4983465;28;20030;-72
2021/08/01 06:18:24;;;;;;;20.35;6.70;;;;;;;;;;4957578;28;20042;-72
2021/08/01 06:20:50;;;;;;;21.17;6.90;;;;;;;;;;4966983;28;20027;-72
2021/08/01 06:23:16;;;;;;;15.15;6.75;;;;;;;;;;4979210;28;20062;-71
2021/08/01 06:25:43;;;;;;;18.88;7.38;;;;;;;;;;4979856;28;20053;-71
2021/08/01 06:28:09;;;;;;;15.13;5.85;;;;;;;;;;4983925;28;20614;-71
2021/08/01 06:30:35;;;;;;;15.85;4.68;;;;;;;;;;4983771;28;20046;-71
2021/08/01 06:33:01;;;;;;;16.50;4.38;;;;;;;;;;4981927;28;20026;-72
2021/08/01 06:35:27;;;;;;;14.77;5.07;;;;;;;;;;4984574;28;20042;-71
2021/08/01 06:37:53;;;;;;;19.92;4.88;;;;;;;;;;4983305;28;20033;-71
2021/08/01 06:40:20;;;;;;;13.13;4.00;;;;;;;;;;4985245;28;20026;-71
2021/08/01 06:42:46;;;;;;;15.52;5.03;;;;;;;;;;4984736;28;20371;-72
2021/08/01 06:45:12;;;;;;;17.17;4.55;;;;;;;;;;4985092;28;20019;-71
2021/08/01 06:47:38;;;;;;;13.77;4.65;;;;;;;;;;4979057;28;20092;-71
2021/08/01 06:50:05;;;;;;;15.85;4.93;;;;;;;;;;4993253;28;20388;-71
2021/08/01 06:52:31;;;;;;;21.38;6.22;;;;;;;;;;5008983;28;20639;-73
2021/08/01 06:54:57;;;;;;;15.23;4.57;;;;;;;;;;5003825;28;20029;-71
2021/08/01 06:57:23;;;;;;;14.63;4.80;;;;;;;;;;5003396;28;20037;-73
2021/08/01 06:59:49;;;;;;;19.30;4.45;;;;;;;;;;5003516;28;20113;-71
2021/08/01 07:02:15;;;;;;;19.02;4.80;;;;;;;;;;5010882;28;20089;-72
2021/08/01 07:04:42;;;;;;;16.33;4.55;;;;;;;;;;5003831;28;20025;-73
2021/08/01 07:07:08;;;;;;;15.18;5.18;;;;;;;;;;5002989;28;20030;-71
2021/08/01 07:09:40;;;;;;;15.05;4.28;;;;;;;;;;5003802;28;20030;-72
2021/08/01 07:12:06;;;;;;;17.48;4.28;;;;;;;;;;5003660;28;20034;-72
2021/08/01 07:14:32;;;;;;;14.98;4.22;;;;;;;;;;5003660;28;20036;-72
2021/08/01 07:17:00;;;;;;;13.10;4.82;;;;;;;;;;5001680;28;20061;-71
2021/08/01 07:19:26;;;;;;;16.77;5.05;;;;;;;;;;5003236;28;20533;-74
2021/08/01 07:21:53;;;;;;;18.20;4.68;;;;;;;;;;5003810;28;20822;-75
2021/08/01 07:24:19;;;;;;;19.60;4.53;;;;;;;;;;5003096;28;20022;-73
2021/08/01 07:26:48;;;;;;;15.55;5.13;;;;;;;;;;5002836;28;20030;-74
2021/08/01 07:29:14;;;;;;;16.15;4.55;;;;;;;;;;5002650;28;20026;-72
2021/08/01 07:31:40;;;;;;;19.08;4.75;;;;;;;;;;5001846;28;20118;-72
2021/08/01 07:34:06;;;;;;;17.55;4.60;;;;;;;;;;5003080;28;20033;-72
2021/08/01 07:36:33;;;;;;;12.20;4.45;;;;;;;;;;5003741;28;20022;-73
2021/08/01 07:38:59;;;;;;;17.00;4.80;;;;;;;;;;5002931;28;20042;-72
2021/08/01 07:41:25;;;;;;;18.70;4.25;;;;;;;;;;5003260;28;20022;-71
2021/08/01 07:43:51;;;;;;;19.05;4.75;;;;;;;;;;5001593;28;20029;-72
2021/08/01 07:46:20;;;;;;;14.57;5.00;;;;;;;;;;5002408;28;20038;-73
2021/08/01 07:48:46;;;;;;;18.63;5.25;;;;;;;;;;5002205;28;20362;-72
2021/08/01 07:51:13;;;;;;;16.05;4.55;;;;;;;;;;5002371;28;20042;-70
2021/08/01 07:53:39;;;;;;;16.33;5.30;;;;;;;;;;5001685;28;20069;-71
2021/08/01 07:56:05;;;;;;;16.48;4.82;;;;;;;;;;5002627;28;20021;-71
2021/08/01 07:58:31;;;;;;;16.20;4.15;;;;;;;;;;5002611;28;20038;-72
2021/08/01 08:00:57;;;;;;;17.80;4.88;;;;;;;;;;5002763;28;20014;-75
2021/08/01 08:03:24;;;;;;;19.95;4.28;;;;;;;;;;5002443;28;20553;-73
2021/08/01 08:05:51;;;;;;;18.88;4.75;;;;;;;;;;5002287;28;20341;-72
2021/08/01 08:08:17;;;;;;;13.15;4.35;;;;;;;;;;5000932;28;20389;-73
2021/08/01 08:10:44;;;;;;;16.20;4.28;;;;;;;;;;5002316;28;20394;-72
2021/08/01 08:13:10;;;;;;;19.40;4.68;;;;;;;;;;5002025;28;20398;-72
2021/08/01 08:15:37;;;;;;;16.67;4.88;;;;;;;;;;5002420;28;20101;-73
2021/08/01 08:18:04;;;;;;;14.45;4.68;;;;;;;;;;5002311;28;20040;-73
2021/08/01 08:20:31;;;;;;;21.95;5.10;;;;;;;;;;5000334;28;20513;-73
2021/08/01 08:22:57;;;;;;;17.77;5.20;;;;;;;;;;5001373;28;20030;-73
2021/08/01 08:25:23;;;;;;;15.95;4.03;;;;;;;;;;5001973;28;20022;-72
2021/08/01 08:27:49;;;;;;;19.80;5.03;;;;;;;;;;5001851;28;20022;-72
2021/08/01 08:30:16;;;;;;;10.43;3.80;;;;;;;;;;5002455;28;20033;-72
2021/08/01 08:32:42;;;;;;;12.15;4.38;;;;;;;;;;5000340;28;20017;-72
2021/08/01 08:35:08;;;;;;;17.45;4.72;;;;;;;;;;5000717;28;20030;-72
2021/08/01 08:37:43;;;;;;;17.88;5.05;;;;;;;;;;5001927;28;20042;-73
2021/08/01 08:40:09;;;;;;;17.80;4.85;;;;;;;;;;5001657;28;20018;-73
2021/08/01 08:42:35;;;;;;;22.08;5.18;;;;;;;;;;5001822;28;20556;-73
2021/08/01 08:45:01;;;;;;;16.83;4.90;;;;;;;;;;5002180;28;20040;-76
2021/08/01 08:47:29;;;;;;;20.45;5.25;;;;;;;;;;5000815;28;20037;-74
2021/08/01 08:49:57;;;;;;;11.18;3.65;;;;;;;;;;5000160;28;20026;-72
2021/08/01 08:52:23;;;;;;;17.92;5.07;;;;;;;;;;5001829;28;20069;-73
2021/08/01 08:54:50;;;;;;;18.30;5.35;;;;;;;;;;5002166;28;20029;-72
2021/08/01 08:57:26;;;;;;;14.73;4.82;;;;;;;;;;5001356;28;20101;-73
2021/08/01 08:59:54;;;;;;;18.65;4.82;;;;;;;;;;4998727;28;20053;-72
2021/08/01 09:02:20;;;;;;;21.38;5.28;;;;;;;;;;5001747;28;20018;-72
2021/08/01 09:04:47;;;;;;;19.65;5.22;;;;;;;;;;5001847;28;20026;-73
2021/08/01 09:07:13;;;;;;;15.00;5.05;;;;;;;;;;5001262;28;20555;-73
2021/08/01 09:09:39;;;;;;;21.88;5.15;;;;;;;;;;4999747;28;20519;-73
2021/08/01 09:12:06;;;;;;;19.88;5.20;;;;;;;;;;5001421;28;20028;-72
2021/08/01 09:14:32;;;;;;;15.77;5.07;;;;;;;;;;4997203;28;20033;-72
2021/08/01 09:16:58;;;;;;;17.30;5.25;;;;;;;;;;5003185;28;20080;-73
2021/08/01 09:19:32;;;;;;;17.15;4.63;;;;;;;;;;4996444;28;20033;-74
2021/08/01 09:22:14;;;;;;;18.85;4.60;;;;;;;;;;5023270;28;20030;-76
2021/08/01 09:24:40;;;;;;;15.18;4.43;;;;;;;;;;4988928;28;20018;-73
2021/08/01 09:27:07;;;;;;;18.58;4.97;;;;;;;;;;5004165;28;20441;-74
2021/08/01 09:29:34;;;;;;;18.10;4.75;;;;;;;;;;4999707;28;20022;-72
2021/08/01 09:32:01;;;;;;;17.52;4.55;;;;;;;;;;5001583;28;20508;-72
2021/08/01 09:34:28;;;;;;;18.08;4.65;;;;;;;;;;5005786;28;20706;-74
2021/08/01 09:37:04;;;;;;;20.50;5.22;;;;;;;;;;5005461;28;20018;-72
2021/08/01 09:39:39;;;;;;;15.82;4.35;;;;;;;;;;5003430;28;20068;-74
2021/08/01 09:42:05;;;;;;;20.20;4.85;;;;;;;;;;5005194;28;20030;-73
2021/08/01 09:44:32;;;;;;;23.08;4.60;;;;;;;;;;5005505;28;20030;-73
2021/08/01 09:46:58;;;;;;;17.75;4.45;;;;;;;;;;5009621;28;20018;-74
2021/08/01 09:49:31;;;;;;;15.15;3.97;;;;;;;;;;5000595;28;20026;-75
2021/08/01 09:52:02;;;;;;;19.15;4.72;;;;;;;;;;5012783;28;20509;-77
2021/08/01 09:54:48;;;;;;;14.25;4.00;;;;;;;;;;5024734;28;20044;-74
2021/08/01 09:57:18;;;;;;;21.30;4.90;;;;;;;;;;5006324;28;20116;-77
2021/08/01 09:59:45;;;;;;;11.13;4.38;;;;;;;;;;5024138;28;20561;-76
2021/08/01 10:02:11;;;;;;;20.42;4.43;;;;;;;;;;5024302;28;20022;-74
2021/08/01 10:04:38;;;;;;;16.85;3.88;;;;;;;;;;5023333;28;20064;-76
2021/08/01 10:07:08;;;;;;;15.85;4.05;;;;;;;;;;5024153;28;20017;-76
2021/08/01 10:09:35;;;;;;;12.00;3.78;;;;;;;;;;5023760;28;20489;-74
2021/08/01 10:12:01;;;;;;;23.15;4.63;;;;;;;;;;5024436;28;20580;-73
2021/08/01 10:14:28;;;;;;;13.65;3.67;;;;;;;;;;5024341;28;20044;-75
2021/08/01 10:16:55;;;;;;;18.90;4.55;;;;;;;;;;5022633;28;20031;-74
2021/08/01 10:19:21;;;;;;;13.77;3.42;;;;;;;;;;5024507;28;20041;-75
2021/08/01 10:21:51;;;;;;;19.35;4.07;;;;;;;;;;5030641;28;20013;-74
2021/08/01 10:24:20;;;;;;;16.85;3.85;;;;;;;;;;5025886;28;20658;-73
2021/08/01 10:26:47;;;;;;;18.55;3.67;;;;;;;;;;5029687;28;20035;-74
2021/08/01 10:29:15;;;;;;;13.57;3.72;;;;;;;;;;5024263;28;20048;-73
2021/08/01 10:31:47;;;;;;;24.52;4.22;;;;;;;;;;5024313;28;20425;-74
2021/08/01 10:34:20;;;;;;;17.55;4.22;;;;;;;;;;5024043;28;20021;-73
2021/08/01 10:36:49;;;;;;;17.05;3.83;;;;;;;;;;5023529;28;20029;-76
2021/08/01 10:39:16;;;;;;;17.98;4.82;;;;;;;;;;5023743;28;20087;-74
2021/08/01 10:41:42;;;;;;;15.32;3.83;;;;;;;;;;5021835;28;20033;-74
2021/08/01 10:44:12;;;;;;;15.93;3.80;;;;;;;;;;5023028;28;20061;-75
2021/08/01 10:46:40;;;;;;;14.40;4.00;;;;;;;;;;5023490;28;20021;-73
2021/08/01 10:49:07;;;;;;;22.73;4.90;;;;;;;;;;5022442;28;20020;-74
2021/08/01 10:51:34;;;;;;;14.65;4.28;;;;;;;;;;5022557;28;20628;-75
2021/08/01 10:54:20;;;;;;;14.55;4.05;;;;;;;;;;5019631;28;20100;-73
2021/08/01 10:56:47;;;;;;;18.60;4.32;;;;;;;;;;5001607;28;20516;-74
2021/08/01 10:59:32;;;;;;;22.70;5.28;;;;;;;;;;5023878;28;20116;-74
2021/08/01 11:02:12;;;;;;;15.55;4.13;;;;;;;;;;5021310;28;20083;-73
2021/08/01 11:04:38;;;;;;;12.63;4.18;;;;;;;;;;5013770;28;20029;-75
2021/08/01 11:07:05;;;;;;;15.70;3.85;;;;;;;;;;5036157;28;20029;-75
2021/08/01 11:09:31;;;;;;;18.95;4.55;;;;;;;;;;5023169;28;20033;-74
2021/08/01 11:12:20;;;;;;;20.27;4.80;;;;;;;;;;5007893;28;20033;-74
2021/08/01 11:14:49;;;;;;;17.13;4.15;;;;;;;;;;5001921;28;20211;-74
2021/08/01 11:17:17;;;;;;;18.23;4.80;;;;;;;;;;5021329;28;20026;-74
2021/08/01 11:19:43;;;;;;;24.23;6.95;;;;;;;;;;5023006;28;20723;-74
2021/08/01 11:22:30;;;;;;;16.40;5.45;;;;;;;;;;5022620;28;20021;-75
2021/08/01 11:25:14;;;;;;;22.42;5.65;;;;;;;;;;5016084;28;20049;-73
2021/08/01 11:28:00;;;;;;;23.08;6.60;;;;;;;;;;5021295;28;20031;-73
2021/08/01 11:30:27;;;;;;;18.23;5.80;;;;;;;;;;5015791;28;20029;-73
2021/08/01 11:32:53;;;;;;;27.10;5.85;;;;;;;;;;5022262;28;20493;-73
2021/08/01 11:35:21;;;;;;;19.25;6.75;;;;;;;;;;5021592;28;20034;-75
2021/08/01 11:38:06;;;;;;;29.08;7.53;;;;;;;;;;5021924;28;20033;-73
2021/08/01 11:40:45;;;;;;;20.20;6.32;;;;;;;;;;5014676;28;20040;-72
2021/08/01 11:43:12;;;;;;;20.98;6.13;;;;;;;;;;5022803;28;20369;-72
2021/08/01 11:45:57;;;;;;;21.20;7.25;;;;;;;;;;5023492;28;20604;-72
2021/08/01 11:48:23;;;;;;;17.75;5.93;;;;;;;;;;5023888;28;20036;-72
2021/08/01 11:50:49;;;;;;;16.00;6.43;;;;;;;;;;5019438;28;20083;-74
2021/08/01 11:53:16;;;;;;;19.88;6.70;;;;;;;;;;5002612;28;20021;-74
2021/08/01 11:55:47;;;;;;;25.08;7.53;;;;;;;;;;4988300;28;20034;-72
2021/08/01 11:58:14;;;;;;;22.30;7.78;;;;;;;;;;4991556;28;20039;-73
2021/08/01 12:00:40;;;;;;;18.05;7.15;;;;;;;;;;5000167;28;20029;-77
2021/08/01 12:03:07;;;;;;;20.27;7.38;;;;;;;;;;4997010;28;20026;-73
2021/08/01 12:05:43;;;;;;;17.52;7.13;;;;;;;;;;5002021;28;20055;-73
2021/08/01 12:08:28;;;;;;;19.33;6.63;;;;;;;;;;5003255;28;20033;-72
2021/08/01 12:11:10;;;;;;;22.63;7.72;;;;;;;;;;5000556;28;20137;-72
2021/08/01 12:13:37;;;;;;;23.17;6.97;;;;;;;;;;4998970;28;20037;-72
2021/08/01 12:16:03;;;;;;;31.55;8.48;;;;;;;;;;5002527;28;20026;-73
2021/08/01 12:18:41;;;;;;;20.80;7.13;;;;;;;;;;5098991;27;20456;-73
2021/08/01 12:21:27;;;;;;;25.55;8.57;;;;;;;;;;5098511;28;20027;-74
2021/08/01 12:23:53;;;;;;;34.80;8.75;;;;;;;;;;5097184;28;20099;-74
2021/08/01 12:26:35;;;;;;;26.85;9.27;;;;;;;;;;5099198;28;20030;-72
2021/08/01 12:29:02;;;;;;;21.85;7.50;;;;;;;;;;5098905;28;20031;-72
2021/08/01 12:31:32;;;;;;;25.38;7.68;;;;;;;;;;5085863;28;20085;-72
2021/08/01 12:33:58;;;;;;;23.00;7.47;;;;;;;;;;5098254;28;20034;-71
2021/08/01 12:36:25;;;;;;;20.50;7.25;;;;;;;;;;5098460;28;20137;-73
2021/08/01 12:38:52;;;;;;;21.70;7.65;;;;;;;;;;5095893;28;20038;-72
2021/08/01 12:41:20;;;;;;;22.35;7.95;;;;;;;;;;5098703;28;20015;-71
2021/08/01 12:43:46;;;;;;;24.05;6.95;;;;;;;;;;5098939;28;20079;-71
2021/08/01 12:46:17;;;;;;;23.05;7.82;;;;;;;;;;5097439;28;20521;-72
2021/08/01 12:48:43;;;;;;;26.55;8.85;;;;;;;;;;5098850;28;20024;-72
2021/08/01 12:51:09;;;;;;;21.15;6.88;;;;;;;;;;5098176;28;20123;-74
2021/08/01 12:53:36;;;;;;;19.52;7.57;;;;;;;;;;5098240;28;20372;-72
2021/08/01 12:56:02;;;;;;;23.73;7.15;;;;;;;;;;5099622;27;20028;-71
2021/08/01 12:58:31;;;;;;;18.42;7.40;;;;;;;;;;5098002;28;20040;-72
2021/08/01 13:01:02;;;;;;;21.77;7.07;;;;;;;;;;5097062;28;20263;-72
2021/08/01 13:03:35;;;;;;;30.55;8.52;;;;;;;;;;5096111;28;20042;-73
2021/08/01 13:06:02;;;;;;;20.98;8.30;;;;;;;;;;5098547;28;20024;-72
2021/08/01 13:08:44;;;;;;;24.00;7.00;;;;;;;;;;5098035;28;20012;-72
2021/08/01 13:11:12;;;;;;;17.60;7.07;;;;;;;;;;5085644;28;20027;-72
2021/08/01 13:13:52;;;;;;;18.88;6.63;;;;;;;;;;5097649;28;20027;-73
2021/08/01 13:16:18;;;;;;;20.17;6.68;;;;;;;;;;5099815;28;20666;-72
2021/08/01 13:18:44;;;;;;;23.38;7.05;;;;;;;;;;5095726;28;20028;-72
2021/08/01 13:21:14;;;;;;;24.58;6.53;;;;;;;;;;5086886;28;20019;-73
2021/08/01 13:23:41;;;;;;;21.33;6.90;;;;;;;;;;5078504;28;20687;-73
2021/08/01 13:26:31;;;;;;;22.20;6.38;;;;;;;;;;5086039;28;20255;-73
2021/08/01 13:29:00;;;;;;;19.70;6.32;;;;;;;;;;5069818;28;20229;-73
2021/08/01 13:31:45;;;;;;;22.83;6.70;;;;;;;;;;5070703;28;20496;-73
2021/08/01 13:34:16;;;;;;;24.50;7.07;;;;;;;;;;5068831;28;20458;-72
2021/08/01 13:36:42;;;;;;;28.65;6.70;;;;;;;;;;5080106;28;20063;-73
2021/08/01 13:39:10;;;;;;;27.60;7.18;;;;;;;;;;5068792;28;20032;-73
2021/08/01 13:41:36;;;;;;;18.08;5.93;;;;;;;;;;5070085;28;20051;-73
2021/08/01 13:44:08;;;;;;;16.35;6.32;;;;;;;;;;5073172;28;20504;-73
2021/08/01 13:46:35;;;;;;;20.17;6.15;;;;;;;;;;5073234;28;20044;-73
2021/08/01 13:49:01;;;;;;;15.75;5.03;;;;;;;;;;5068747;28;20020;-74
2021/08/01 13:51:28;;;;;;;17.73;6.68;;;;;;;;;;5069523;28;20028;-72
2021/08/01 13:53:54;;;;;;;26.92;7.13;;;;;;;;;;5069720;28;20035;-73
2021/08/01 13:56:20;;;;;;;22.90;6.68;;;;;;;;;;5070213;28;20035;-72
2021/08/01 13:58:46;;;;;;;13.23;5.95;;;;;;;;;;5072138;28;20028;-72
2021/08/01 14:01:12;;;;;;;16.65;6.60;;;;;;;;;;5082881;28;20107;-73
2021/08/01 14:03:39;;;;;;;17.88;5.75;;;;;;;;;;5069567;28;20194;-74
2021/08/01 14:06:05;;;;;;;18.52;6.72;;;;;;;;;;5077344;28;20023;-73
2021/08/01 14:08:31;;;;;;;18.58;6.03;;;;;;;;;;5077579;28;20024;-73
2021/08/01 14:10:58;;;;;;;15.38;5.53;;;;;;;;;;5082209;28;20038;-73
2021/08/01 14:13:24;;;;;;;21.40;5.30;;;;;;;;;;5081689;28;20032;-73
2021/08/01 14:15:50;;;;;;;15.93;5.47;;;;;;;;;;5082576;28;20032;-73
2021/08/01 14:18:16;;;;;;;14.77;5.68;;;;;;;;;;5083339;28;20052;-73
2021/08/01 14:20:42;;;;;;;16.55;5.70;;;;;;;;;;5081294;28;20028;-74
2021/08/01 14:23:08;;;;;;;15.35;5.28;;;;;;;;;;5083100;28;20016;-73
2021/08/01 14:25:35;;;;;;;15.73;4.47;;;;;;;;;;5081213;28;20024;-73
2021/08/01 14:28:02;;;;;;;18.35;5.75;;;;;;;;;;5083783;28;20032;-73
2021/08/01 14:30:28;;;;;;;19.40;5.63;;;;;;;;;;5070420;28;20032;-73
2021/08/01 14:32:56;;;;;;;19.20;5.32;;;;;;;;;;5079989;28;20851;-73
2021/08/01 14:35:23;;;;;;;16.77;4.90;;;;;;;;;;5083176;28;20016;-73
2021/08/01 14:37:49;;;;;;;10.07;3.65;;;;;;;;;;5081470;28;20126;-73
2021/08/01 14:40:19;;;;;;;9.63;3.60;;;;;;;;;;5082044;28;20030;-73
2021/08/01 14:42:46;;;;;;;12.10;3.65;;;;;;;;;;5082774;28;20090;-73
2021/08/01 14:45:12;;;;;;;11.95;3.92;;;;;;;;;;5073254;28;20027;-74
2021/08/01 14:47:40;;;;;;;10.63;3.42;;;;;;;;;;5082513;28;20024;-73
2021/08/01 14:50:16;;;;;;;12.32;3.65;;;;;;;;;;5076660;28;20089;-73
2021/08/01 14:52:58;;;;;;;11.10;3.85;;;;;;;;;;5081124;28;20074;-73
2021/08/01 14:55:24;;;;;;;12.88;3.80;;;;;;;;;;5077467;28;20699;-73
2021/08/01 14:57:57;;;;;;;14.10;3.80;;;;;;;;;;5083156;28;20440;-73
2021/08/01 15:00:26;;;;;;;17.60;3.67;;;;;;;;;;5070595;28;20016;-72
2021/08/01 15:03:10;;;;;;;12.07;3.42;;;;;;;;;;5079101;28;20464;-73
2021/08/01 15:05:52;;;;;;;10.70;3.17;;;;;;;;;;5068553;28;20034;-72
2021/08/01 15:08:18;;;;;;;;;;;;;;;;;;5066838;28;20027;-72
2021/08/01 15:10:49;;;;;;;10.25;3.90;;;;;;;;;;5069729;28;19907;-72
2021/08/01 15:13:20;;;;;;;12.57;3.90;;;;;;;;;;5065220;28;20016;-73
2021/08/01 15:15:48;;;;;;;10.18;3.50;;;;;;;;;;5070837;28;20031;-73
2021/08/01 15:18:19;;;;;;;13.63;3.38;;;;;;;;;;5065190;28;20048;-73
2021/08/01 15:20:45;;;;;;;;;;;;;;;;;;5069789;28;20233;-73
2021/08/01 15:23:12;;;;;;;9.43;3.03;;;;;;;;;;5065110;28;19904;-72
2021/08/01 15:25:39;;;;;;;11.07;3.45;;;;;;;;;;5065809;28;20054;-72
2021/08/01 15:28:07;;;;;;;9.63;3.50;;;;;;;;;;5076884;28;20021;-73
2021/08/01 15:30:38;;;;;;;13.02;3.63;;;;;;;;;;5067037;28;20051;-72
2021/08/01 15:33:05;;;;;;;10.18;3.35;;;;;;;;;;5065976;28;20020;-72
2021/08/01 15:35:31;;;;;;;8.10;3.00;;;;;;;;;;5064541;28;20046;-72
2021/08/01 15:37:59;;;;;;;11.77;3.60;;;;;;;;;;5068567;28;20085;-73
2021/08/01 15:40:26;;;;;;;8.70;3.03;;;;;;;;;;5062200;28;20020;-73
2021/08/01 15:42:53;;;;;;;11.25;3.08;;;;;;;;;;5064877;28;20037;-73
2021/08/01 15:45:20;;;;;;;11.45;3.03;;;;;;;;;;5071852;28;20085;-73
2021/08/01 15:47:46;;;;;;;14.70;3.50;;;;;;;;;;5075357;28;20114;-73
2021/08/01 15:50:13;;;;;;;11.88;3.50;;;;;;;;;;5067471;28;20021;-73
2021/08/01 15:52:58;;;;;;;21.33;3.55;;;;;;;;;;5063493;28;20139;-73
2021/08/01 15:55:35;;;;;;;10.45;2.92;;;;;;;;;;5064959;28;20043;-73
2021/08/01 15:58:05;;;;;;;14.63;3.88;;;;;;;;;;5072732;28;20077;-73
2021/08/01 16:00:34;;;;;;;8.93;3.60;;;;;;;;;;5071982;28;20413;-72
2021/08/01 16:03:26;;;;;;;10.00;3.22;;;;;;;;;;5076266;28;20029;-73
2021/08/01 16:06:19;;;;;;;12.10;3.38;;;;;;;;;;5073893;28;20150;-73
2021/08/01 16:08:48;;;;;;;8.90;2.85;;;;;;;;;;5060434;28;20498;-73
2021/08/01 16:11:16;;;;;;;14.75;3.15;;;;;;;;;;5066917;28;20109;-73
2021/08/01 16:13:43;;;;;;;10.15;3.20;;;;;;;;;;5069850;28;20032;-73
2021/08/01 16:16:35;;;;;;;9.98;3.17;;;;;;;;;;5069009;28;20077;-73
2021/08/01 16:19:02;;;;;;;7.68;2.83;;;;;;;;;;5062736;28;20610;-73
2021/08/01 16:21:29;;;;;;;10.10;2.58;;;;;;;;;;5066596;28;20025;-73
2021/08/01 16:23:56;;;;;;;11.85;3.50;;;;;;;;;;5063559;28;20106;-73
2021/08/01 16:26:22;;;;;;;9.65;2.72;;;;;;;;;;5067765;28;20032;-73
2021/08/01 16:28:49;;;;;;;10.05;2.90;;;;;;;;;;5064154;28;20062;-73
2021/08/01 16:31:17;;;;;;;13.93;3.50;;;;;;;;;;5063272;28;20843;-72
2021/08/01 16:33:45;;;;;;;11.13;2.70;;;;;;;;;;5062987;28;20017;-71
2021/08/01 16:36:14;;;;;;;12.40;2.78;;;;;;;;;;5063227;28;20020;-72
2021/08/01 16:38:40;;;;;;;10.18;2.92;;;;;;;;;;5065799;28;20044;-72
2021/08/01 16:41:07;;;;;;;9.13;3.25;;;;;;;;;;5065721;28;20029;-72
2021/08/01 16:43:39;;;;;;;10.45;3.03;;;;;;;;;;5062907;28;20020;-72
2021/08/01 16:46:08;;;;;;;11.75;3.33;;;;;;;;;;5061108;28;20074;-72
2021/08/01 16:48:58;;;;;;;11.85;3.40;;;;;;;;;;5062761;28;20482;-72
2021/08/01 16:51:43;;;;;;;9.10;2.83;;;;;;;;;;5056867;28;20126;-72
2021/08/01 16:54:16;;;;;;;7.38;3.45;;;;;;;;;;5062077;28;20397;-73
2021/08/01 16:56:45;;;;;;;11.35;3.03;;;;;;;;;;5063148;28;20103;-72
2021/08/01 16:59:18;;;;;;;12.38;2.97;;;;;;;;;;5061091;28;20031;-73
2021/08/01 17:01:47;;;;;;;11.40;2.60;;;;;;;;;;5064133;28;20031;-71
2021/08/01 17:04:23;;;;;;;10.13;2.75;;;;;;;;;;5063694;28;20413;-73
2021/08/01 17:06:59;;;;;;;8.48;2.97;;;;;;;;;;5071490;28;20028;-72
2021/08/01 17:09:29;;;;;;;14.77;3.67;;;;;;;;;;5065751;28;20027;-72
2021/08/01 17:12:07;;;;;;;13.98;2.88;;;;;;;;;;5065485;28;20037;-71
2021/08/01 17:14:42;;;;;;;15.27;3.33;;;;;;;;;;5067132;28;20028;-72
2021/08/01 17:17:09;;;;;;;14.07;3.67;;;;;;;;;;5065156;28;20040;-73
2021/08/01 17:19:36;;;;;;;11.05;3.28;;;;;;;;;;5066370;28;20127;-73
2021/08/01 17:22:07;;;;;;;9.63;2.70;;;;;;;;;;5063662;28;20239;-72
2021/08/01 17:24:36;;;;;;;15.48;3.40;;;;;;;;;;5067397;28;20040;-72
2021/08/01 17:27:02;;;;;;;9.18;3.17;;;;;;;;;;5069396;28;20527;-72
2021/08/01 17:29:28;;;;;;;10.88;3.05;;;;;;;;;;5066238;28;20044;-72
2021/08/01 17:31:56;;;;;;;12.77;3.47;;;;;;;;;;5065908;28;20090;-72
2021/08/01 17:34:25;;;;;;;8.90;2.45;;;;;;;;;;5065179;28;20429;-72
2021/08/01 17:36:55;;;;;;;11.73;3.22;;;;;;;;;;5061763;28;20124;-72
2021/08/01 17:39:27;;;;;;;15.45;3.65;;;;;;;;;;5062592;28;20031;-73
2021/08/01 17:41:54;;;;;;;13.15;2.55;;;;;;;;;;5066759;28;20147;-73
2021/08/01 17:44:24;;;;;;;17.40;3.80;;;;;;;;;;5065181;28;20101;-73
2021/08/01 17:46:52;;;;;;;15.13;3.35;;;;;;;;;;5065197;28;20025;-73
2021/08/01 17:49:18;;;;;;;18.15;4.47;;;;;;;;;;5074763;28;20391;-72
2021/08/01 17:51:46;;;;;;;14.25;3.30;;;;;;;;;;5082239;28;20024;-72
2021/08/01 17:54:15;;;;;;;10.85;2.95;;;;;;;;;;5075406;28;20016;-72
2021/08/01 17:56:41;;;;;;;13.90;3.83;;;;;;;;;;5079933;28;20020;-72
2021/08/01 17:59:09;;;;;;;24.40;5.03;;;;;;;;;;5082134;28;20020;-73
2021/08/01 18:01:35;;;;;;;51.60;6.10;;;;;;;;;;5084538;28;20024;-73
2021/08/01 18:04:01;;;;;;;17.90;4.78;;;;;;;;;;5083799;28;20024;-72
2021/08/01 18:06:32;;;;;;;15.40;4.60;;;;;;;;;;5083590;28;20044;-74
2021/08/01 18:08:58;;;;;;;;;;;;;;;;;;5082303;28;20016;-72
2021/08/01 18:11:25;;;;;;;20.70;4.15;;;;;;;;;;5082455;28;19998;-73
2021/08/01 18:14:08;;;;;;;16.85;4.28;;;;;;;;;;5079119;28;20043;-74
2021/08/01 18:16:36;;;;;;;5.57;2.80;;;;;;;;;;5081736;28;20088;-72
2021/08/01 18:19:05;;;;;;;15.10;3.92;;;;;;;;;;5083239;28;20027;-72
2021/08/01 18:21:33;;;;;;;8.27;3.17;;;;;;;;;;5083509;28;20050;-73
2021/08/01 18:24:02;;;;;;;9.23;3.30;;;;;;;;;;5083022;28;20024;-70
2021/08/01 18:26:29;;;;;;;8.40;3.38;;;;;;;;;;5083471;28;20024;-74
2021/08/01 18:28:56;;;;;;;16.65;3.08;;;;;;;;;;5070207;28;20438;-75
2021/08/01 18:31:23;;;;;;;14.00;3.75;;;;;;;;;;5071805;28;20383;-74
2021/08/01 18:33:50;;;;;;;20.15;4.20;;;;;;;;;;5083136;28;20038;-74
2021/08/01 18:36:17;;;;;;;15.98;4.40;;;;;;;;;;5081329;28;20590;-73
2021/08/01 18:38:43;;;;;;;13.20;3.58;;;;;;;;;;5083033;28;20634;-73
2021/08/01 18:41:12;;;;;;;19.00;4.40;;;;;;;;;;5083037;28;20055;-72
2021/08/01 18:43:43;;;;;;;15.65;4.15;;;;;;;;;;5072644;28;20028;-74
2021/08/01 18:46:09;;;;;;;18.55;4.45;;;;;;;;;;5080937;28;20107;-73
2021/08/01 18:48:38;;;;;;;15.00;3.80;;;;;;;;;;5082591;28;20031;-73
2021/08/01 18:51:05;;;;;;;12.50;3.55;;;;;;;;;;5081540;28;20036;-74
2021/08/01 18:53:32;;;;;;;16.30;4.38;;;;;;;;;;5082675;28;20040;-74
2021/08/01 18:56:02;;;;;;;15.02;4.07;;;;;;;;;;5082656;28;20085;-74
2021/08/01 18:58:29;;;;;;;14.13;4.03;;;;;;;;;;5079796;28;20487;-73
2021/08/01 19:00:57;;;;;;;15.32;3.83;;;;;;;;;;5071801;28;20035;-74
2021/08/01 19:03:24;;;;;;;9.80;3.40;;;;;;;;;;5082629;28;20027;-73
2021/08/01 19:05:51;;;;;;;15.43;4.05;;;;;;;;;;5082234;28;20077;-73
2021/08/01 19:08:19;;;;;;;14.25;3.95;;;;;;;;;;5081116;28;20019;-73
2021/08/01 19:10:46;;;;;;;11.25;3.85;;;;;;;;;;5082624;28;20046;-75
2021/08/01 19:13:15;;;;;;;17.08;4.35;;;;;;;;;;5077968;28;20024;-75
2021/08/01 19:16:02;;;;;;;15.50;4.03;;;;;;;;;;5080463;28;20032;-73
2021/08/01 19:18:30;;;;;;;11.93;4.32;;;;;;;;;;5074363;28;20055;-74
2021/08/01 19:21:02;;;;;;;15.63;4.18;;;;;;;;;;5074331;28;20088;-72
2021/08/01 19:23:32;;;;;;;13.23;4.40;;;;;;;;;;5081742;28;20066;-74
2021/08/01 19:26:01;;;;;;;14.27;4.05;;;;;;;;;;5079867;28;20020;-74
2021/08/01 19:28:31;;;;;;;11.98;4.00;;;;;;;;;;5081660;28;20035;-74
2021/08/01 19:30:57;;;;;;;12.05;4.72;;;;;;;;;;5080947;28;20028;-74
2021/08/01 19:33:28;;;;;;;15.30;5.00;;;;;;;;;;5081878;28;20026;-73